createdAt,value
2023-01-17T00:00:38.815Z,49.40
2023-01-17T00:02:40.243Z,50.10
2023-01-17T00:05:00.354Z,49.47
2023-01-17T00:07:20.110Z,49.30
2023-01-17T00:09:39.956Z,49.70
2023-01-17T00:11:41.253Z,50.90
2023-01-17T00:13:42.675Z,49.58
2023-01-17T00:15:44.076Z,49.70
2023-01-17T00:17:45.398Z,50.17
2023-01-17T00:20:05.468Z,50.44
2023-01-17T00:22:25.316Z,50.25
2023-01-17T00:24:45.199Z,50.16
2023-01-17T00:27:09.571Z,50.60
2023-01-17T00:29:10.825Z,50.26
2023-01-17T00:31:12.095Z,50.28
2023-01-17T00:33:13.364Z,50.16
2023-01-17T00:35:14.693Z,50.17
2023-01-17T00:37:15.996Z,49.99
2023-01-17T00:39:17.255Z,50.19
2023-01-17T00:41:18.502Z,50.61
2023-01-17T00:43:38.729Z,50.83
2023-01-17T00:45:58.718Z,51.06
2023-01-17T00:48:18.600Z,50.86
2023-01-17T00:50:38.805Z,50.74
2023-01-17T00:52:58.970Z,49.95
2023-01-17T00:55:18.863Z,46.55
2023-01-17T00:57:38.760Z,41.63
2023-01-17T00:59:58.636Z,41.52
2023-01-17T01:02:18.555Z,44.22
2023-01-17T01:04:38.758Z,43.79
2023-01-17T01:06:58.606Z,43.61
2023-01-17T01:09:18.470Z,44.62
2023-01-17T01:11:38.392Z,45.26
2023-01-17T01:13:58.206Z,45.25
2023-01-17T01:16:18.219Z,45.96
2023-01-17T01:18:38.126Z,46.05
2023-01-17T01:20:57.970Z,46.59
2023-01-17T01:23:17.932Z,46.95
2023-01-17T01:25:37.861Z,47.29
2023-01-17T01:27:57.663Z,47.31
2023-01-17T01:30:17.709Z,47.61
2023-01-17T01:32:37.686Z,47.98
2023-01-17T01:34:38.991Z,48.04
2023-01-17T01:36:40.286Z,48.15
2023-01-17T01:38:41.589Z,48.28
2023-01-17T01:40:43.116Z,48.57
2023-01-17T01:42:44.414Z,48.92
2023-01-17T01:44:45.768Z,49.23
2023-01-17T01:46:47.066Z,49.37
2023-01-17T01:48:48.419Z,49.71
2023-01-17T01:50:49.887Z,49.82
2023-01-17T01:52:51.174Z,50.48
2023-01-17T01:54:52.474Z,50.71
2023-01-17T01:56:53.770Z,50.71
2023-01-17T01:58:55.098Z,50.68
2023-01-17T02:00:56.461Z,51.08
2023-01-17T02:02:57.797Z,51.40
2023-01-17T02:04:59.254Z,51.53
2023-01-17T02:07:00.552Z,52.42
2023-01-17T02:09:01.900Z,52.91
2023-01-17T02:11:03.265Z,53.05
2023-01-17T02:13:04.611Z,53.29
2023-01-17T02:15:05.947Z,53.24
2023-01-17T02:17:07.287Z,53.67
2023-01-17T02:19:08.573Z,54.08
2023-01-17T02:21:09.927Z,54.28
2023-01-17T02:23:11.256Z,54.93
2023-01-17T02:25:12.589Z,55.30
2023-01-17T02:27:13.886Z,55.82
2023-01-17T02:29:15.218Z,55.83
2023-01-17T02:31:16.539Z,55.34
2023-01-17T02:33:17.853Z,55.35
2023-01-17T02:35:20.375Z,55.84
2023-01-17T02:37:21.671Z,55.34
2023-01-17T02:39:23.102Z,55.13
2023-01-17T02:41:24.434Z,55.63
2023-01-17T02:43:25.818Z,55.35
2023-01-17T02:45:27.150Z,55.36
2023-01-17T02:47:28.464Z,54.92
2023-01-17T02:49:29.777Z,55.30
2023-01-17T02:51:31.115Z,55.68
2023-01-17T02:53:32.403Z,55.10
2023-01-17T02:55:33.721Z,54.80
2023-01-17T02:57:35.021Z,54.79
2023-01-17T02:59:36.331Z,55.08
2023-01-17T03:01:37.761Z,54.74
2023-01-17T03:03:39.193Z,54.63
2023-01-17T03:05:41.500Z,54.23
2023-01-17T03:07:44.351Z,54.64
2023-01-17T03:09:45.931Z,54.11
2023-01-17T03:11:47.219Z,54.63
2023-01-17T03:13:48.551Z,54.62
2023-01-17T03:15:49.902Z,54.72
2023-01-17T03:17:51.190Z,55.27
2023-01-17T03:19:52.530Z,55.73
2023-01-17T03:21:54.029Z,55.60
2023-01-17T03:23:55.692Z,55.70
2023-01-17T03:25:57.101Z,55.55
2023-01-17T03:27:59.659Z,56.27
2023-01-17T03:30:01.840Z,56.04
2023-01-17T03:32:03.138Z,56.58
2023-01-17T03:34:04.599Z,56.72
2023-01-17T03:36:05.918Z,56.62
2023-01-17T03:38:07.471Z,56.53
2023-01-17T03:40:08.942Z,57.03
2023-01-17T03:42:10.230Z,57.08
2023-01-17T03:44:11.517Z,56.84
2023-01-17T03:46:12.922Z,57.07
2023-01-17T03:48:14.241Z,57.04
2023-01-17T03:50:15.533Z,57.60
2023-01-17T03:52:16.871Z,57.90
2023-01-17T03:54:18.316Z,57.50
2023-01-17T03:56:19.953Z,57.80
2023-01-17T03:58:21.364Z,57.69
2023-01-17T04:00:22.667Z,57.71
2023-01-17T04:02:24.628Z,57.54
2023-01-17T04:04:25.965Z,57.44
2023-01-17T04:06:28.473Z,57.71
2023-01-17T04:08:30.567Z,57.41
2023-01-17T04:10:31.929Z,57.35
2023-01-17T04:12:33.214Z,57.39
2023-01-17T04:14:34.510Z,57.52
2023-01-17T04:16:35.897Z,57.32
2023-01-17T04:18:37.204Z,57.06
2023-01-17T04:20:38.801Z,57.00
2023-01-17T04:22:40.114Z,57.14
2023-01-17T04:24:41.447Z,56.79
2023-01-17T04:26:42.791Z,57.30
2023-01-17T04:28:44.213Z,56.87
2023-01-17T04:30:45.577Z,56.67
2023-01-17T04:32:46.934Z,56.62
2023-01-17T04:34:48.240Z,56.55
2023-01-17T04:36:49.562Z,55.94
2023-01-17T04:38:50.924Z,55.91
2023-01-17T04:40:52.251Z,55.72
2023-01-17T04:42:54.355Z,55.77
2023-01-17T04:44:55.734Z,55.75
2023-01-17T04:46:57.091Z,56.27
2023-01-17T04:48:59.226Z,55.63
2023-01-17T04:51:00.765Z,55.49
2023-01-17T04:53:02.218Z,55.53
2023-01-17T04:55:03.552Z,55.43
2023-01-17T04:57:04.855Z,55.27
2023-01-17T04:59:06.209Z,55.89
2023-01-17T05:01:07.641Z,56.08
2023-01-17T05:03:09.010Z,56.64
2023-01-17T05:05:10.664Z,56.47
2023-01-17T05:07:12.091Z,56.68
2023-01-17T05:09:13.386Z,56.81
2023-01-17T05:11:14.731Z,56.94
2023-01-17T05:13:16.111Z,57.04
2023-01-17T05:15:17.416Z,57.11
2023-01-17T05:17:18.731Z,56.94
2023-01-17T05:19:21.020Z,57.13
2023-01-17T05:21:22.423Z,57.46
2023-01-17T05:23:23.731Z,57.49
2023-01-17T05:25:25.024Z,57.57
2023-01-17T05:27:27.037Z,57.83
2023-01-17T05:29:28.334Z,57.72
2023-01-17T05:31:29.702Z,57.84
2023-01-17T05:33:31.029Z,57.57
2023-01-17T05:35:35.490Z,57.61
2023-01-17T05:37:36.941Z,57.65
2023-01-17T05:39:38.281Z,57.30
2023-01-17T05:41:39.810Z,57.21
2023-01-17T05:43:41.109Z,57.44
2023-01-17T05:45:42.455Z,56.86
2023-01-17T05:47:43.791Z,56.90
2023-01-17T05:49:45.992Z,56.68
2023-01-17T05:51:47.387Z,56.57
2023-01-17T05:53:48.689Z,57.08
2023-01-17T05:55:50.086Z,56.26
2023-01-17T05:57:51.493Z,56.42
2023-01-17T05:59:52.796Z,56.33
2023-01-17T06:01:54.357Z,56.16
2023-01-17T06:03:55.662Z,56.57
2023-01-17T06:05:56.987Z,56.68
2023-01-17T06:07:58.321Z,57.01
2023-01-17T06:09:59.618Z,57.11
2023-01-17T06:12:00.950Z,56.85
2023-01-17T06:14:02.287Z,57.31
2023-01-17T06:16:04.250Z,56.62
2023-01-17T06:18:05.689Z,56.65
2023-01-17T06:20:07.006Z,57.08
2023-01-17T06:22:08.334Z,57.11
2023-01-17T06:24:09.635Z,57.46
2023-01-17T06:26:10.954Z,57.04
2023-01-17T06:28:12.362Z,57.27
2023-01-17T06:30:13.671Z,57.12
2023-01-17T06:32:14.995Z,57.22
2023-01-17T06:34:16.335Z,57.09
2023-01-17T06:36:17.686Z,57.03
2023-01-17T06:38:18.983Z,57.17
2023-01-17T06:40:20.298Z,57.11
2023-01-17T06:42:21.626Z,57.66
2023-01-17T06:44:22.966Z,57.96
2023-01-17T06:46:24.331Z,57.44
2023-01-17T06:48:25.686Z,57.62
2023-01-17T06:50:27.029Z,57.82
2023-01-17T06:52:28.374Z,57.85
2023-01-17T06:54:29.685Z,57.59
2023-01-17T06:56:31.406Z,57.74
2023-01-17T06:58:32.741Z,57.81
2023-01-17T07:00:35.270Z,58.17
2023-01-17T07:02:36.649Z,58.27
2023-01-17T07:04:38.012Z,57.64
2023-01-17T07:06:39.341Z,57.46
2023-01-17T07:08:40.657Z,57.34
2023-01-17T07:10:42.101Z,57.65
2023-01-17T07:12:43.449Z,57.41
2023-01-17T07:14:44.881Z,57.49
2023-01-17T07:16:49.154Z,57.28
2023-01-17T07:18:51.351Z,57.56
2023-01-17T07:20:52.654Z,57.05
2023-01-17T07:22:53.981Z,56.60
2023-01-17T07:24:58.681Z,56.50
2023-01-17T07:27:00.132Z,56.41
2023-01-17T07:29:02.246Z,56.10
2023-01-17T07:31:03.614Z,56.70
2023-01-17T07:33:05.470Z,56.58
2023-01-17T07:35:09.782Z,56.19
2023-01-17T07:37:11.746Z,56.66
2023-01-17T07:39:14.379Z,56.54
2023-01-17T07:41:15.725Z,56.94
2023-01-17T07:43:17.327Z,56.62
2023-01-17T07:45:18.887Z,56.81
2023-01-17T07:47:20.296Z,46.58
2023-01-17T07:49:21.626Z,42.79
2023-01-17T07:51:22.986Z,44.04
2023-01-17T07:53:24.343Z,46.26
2023-01-17T07:55:25.655Z,46.42
2023-01-17T07:57:27.039Z,46.82
2023-01-17T07:59:28.355Z,47.36
2023-01-17T08:01:29.915Z,47.63
2023-01-17T08:03:32.459Z,48.34
2023-01-17T08:05:34.391Z,48.59
2023-01-17T08:07:35.693Z,49.09
2023-01-17T08:09:36.995Z,49.22
2023-01-17T08:11:38.316Z,49.14
2023-01-17T08:13:40.222Z,49.43
2023-01-17T08:15:41.561Z,49.55
2023-01-17T08:17:42.867Z,49.45
2023-01-17T08:19:44.877Z,49.33
2023-01-17T08:21:46.226Z,49.41
2023-01-17T08:23:47.523Z,49.67
2023-01-17T08:25:48.854Z,49.27
2023-01-17T08:27:50.163Z,49.05
2023-01-17T08:29:52.138Z,49.54
2023-01-17T08:31:54.173Z,49.48
2023-01-17T08:33:55.552Z,49.84
2023-01-17T08:35:56.905Z,49.56
2023-01-17T08:37:59.945Z,49.64
2023-01-17T08:40:01.381Z,49.72
2023-01-17T08:42:02.758Z,49.81
2023-01-17T08:44:04.098Z,50.29
2023-01-17T08:46:06.407Z,50.18
2023-01-17T08:48:07.807Z,50.52
2023-01-17T08:50:09.286Z,50.90
2023-01-17T08:52:13.082Z,51.03
2023-01-17T08:54:15.429Z,51.05
2023-01-17T08:56:16.758Z,51.16
2023-01-17T08:58:18.230Z,51.00
2023-01-17T09:00:19.560Z,51.14
2023-01-17T09:02:21.351Z,51.25
2023-01-17T09:04:22.844Z,51.49
2023-01-17T09:06:24.181Z,51.58
2023-01-17T09:08:25.512Z,51.45
2023-01-17T09:10:27.170Z,51.80
2023-01-17T09:12:28.501Z,51.84
2023-01-17T09:14:29.812Z,52.04
2023-01-17T09:16:31.174Z,51.85
2023-01-17T09:18:32.522Z,51.91
2023-01-17T09:20:33.823Z,52.03
2023-01-17T09:22:37.686Z,52.67
2023-01-17T09:24:39.102Z,52.05
2023-01-17T09:26:40.401Z,52.10
2023-01-17T09:28:44.502Z,52.25
2023-01-17T09:30:45.850Z,52.17
2023-01-17T09:32:47.158Z,52.25
2023-01-17T09:34:48.496Z,51.94
2023-01-17T09:36:49.830Z,51.68
2023-01-17T09:38:51.142Z,51.60
2023-01-17T09:40:52.474Z,51.67
2023-01-17T09:42:53.814Z,51.27
2023-01-17T09:44:55.103Z,51.30
2023-01-17T09:46:56.480Z,50.96
2023-01-17T09:48:57.865Z,50.92
2023-01-17T09:50:59.150Z,50.66
2023-01-17T09:53:03.539Z,50.91
2023-01-17T09:55:07.195Z,50.39
2023-01-17T09:57:09.219Z,50.58
2023-01-17T09:59:10.539Z,50.43
2023-01-17T10:01:13.053Z,50.68
2023-01-17T10:03:14.625Z,50.51
2023-01-17T10:05:16.408Z,50.77
2023-01-17T10:07:17.731Z,50.65
2023-01-17T10:09:19.284Z,51.23
2023-01-17T10:11:20.589Z,51.01
2023-01-17T10:13:23.976Z,51.10
2023-01-17T10:15:25.311Z,51.34
2023-01-17T10:17:26.646Z,51.46
2023-01-17T10:19:27.956Z,51.82
2023-01-17T10:21:29.293Z,51.74
2023-01-17T10:23:30.590Z,51.56
2023-01-17T10:25:33.166Z,51.68
2023-01-17T10:27:34.591Z,51.78
2023-01-17T10:29:36.124Z,51.97
2023-01-17T10:31:37.415Z,52.08
2023-01-17T10:33:38.784Z,52.03
2023-01-17T10:35:40.091Z,52.00
2023-01-17T10:37:41.487Z,52.23
2023-01-17T10:39:42.928Z,52.12
2023-01-17T10:41:44.304Z,52.31
2023-01-17T10:43:45.765Z,52.49
2023-01-17T10:45:47.134Z,52.94
2023-01-17T10:47:48.483Z,52.44
2023-01-17T10:49:51.965Z,52.42
2023-01-17T10:51:59.876Z,52.44
2023-01-17T10:54:01.944Z,52.07
2023-01-17T10:56:03.456Z,52.32
2023-01-17T10:58:04.747Z,52.00
2023-01-17T11:00:06.082Z,51.79
2023-01-17T11:02:07.499Z,51.76
2023-01-17T11:04:09.063Z,51.77
2023-01-17T11:06:10.638Z,51.63
2023-01-17T11:08:12.693Z,51.16
2023-01-17T11:10:14.032Z,51.51
2023-01-17T11:12:15.468Z,51.14
2023-01-17T11:14:17.221Z,51.56
2023-01-17T11:16:18.562Z,51.39
2023-01-17T11:18:19.958Z,51.24
2023-01-17T11:20:21.293Z,51.00
2023-01-17T11:22:22.615Z,51.30
2023-01-17T11:24:24.174Z,51.01
2023-01-17T11:26:25.757Z,51.35
2023-01-17T11:28:30.498Z,51.41
2023-01-17T11:30:32.035Z,51.19
2023-01-17T11:32:33.375Z,51.15
2023-01-17T11:34:37.480Z,51.14
2023-01-17T11:36:38.795Z,51.51
2023-01-17T11:38:41.535Z,51.43
2023-01-17T11:40:42.877Z,51.58
2023-01-17T11:42:44.182Z,51.56
2023-01-17T11:44:45.612Z,51.74
2023-01-17T11:46:46.966Z,51.53
2023-01-17T11:48:48.261Z,51.59
2023-01-17T11:50:49.556Z,51.68
2023-01-17T11:52:50.905Z,51.73
2023-01-17T11:54:52.197Z,52.05
2023-01-17T11:56:53.499Z,52.02
2023-01-17T11:58:54.835Z,52.11
2023-01-17T12:00:56.208Z,52.04
2023-01-17T12:02:57.526Z,52.15
2023-01-17T12:04:58.870Z,52.36
2023-01-17T12:07:00.231Z,52.25
2023-01-17T12:09:02.820Z,52.46
2023-01-17T12:11:04.150Z,52.26
2023-01-17T12:13:24.215Z,52.10
2023-01-17T12:15:25.749Z,52.24
2023-01-17T12:17:27.088Z,52.29
2023-01-17T12:19:28.579Z,51.99
2023-01-17T12:21:29.918Z,52.13
2023-01-17T12:23:31.511Z,51.84
2023-01-17T12:25:32.867Z,51.80
2023-01-17T12:27:34.595Z,52.14
2023-01-17T12:29:35.941Z,51.48
2023-01-17T12:31:37.292Z,51.66
2023-01-17T12:33:38.597Z,51.62
2023-01-17T12:35:39.931Z,51.18
2023-01-17T12:37:41.227Z,51.48
2023-01-17T12:39:42.575Z,51.49
2023-01-17T12:41:43.925Z,51.03
2023-01-17T12:43:45.839Z,50.67
2023-01-17T12:45:47.160Z,51.07
2023-01-17T12:47:48.531Z,50.90
2023-01-17T12:49:49.836Z,51.05
2023-01-17T12:51:51.667Z,51.38
2023-01-17T12:53:52.965Z,50.88
2023-01-17T12:55:54.384Z,51.06
2023-01-17T12:57:55.724Z,51.20
2023-01-17T12:59:57.026Z,51.02
2023-01-17T13:01:58.580Z,51.13
2023-01-17T13:04:00.340Z,51.47
2023-01-17T13:06:01.648Z,51.62
2023-01-17T13:08:02.946Z,51.57
2023-01-17T13:10:04.287Z,51.48
2023-01-17T13:12:05.630Z,51.29
2023-01-17T13:14:06.978Z,51.42
2023-01-17T13:16:08.306Z,51.67
2023-01-17T13:18:10.464Z,51.51
2023-01-17T13:20:11.813Z,51.80
2023-01-17T13:22:17.691Z,51.70
2023-01-17T13:24:19.392Z,51.74
2023-01-17T13:26:20.729Z,51.76
2023-01-17T13:28:22.038Z,51.99
2023-01-17T13:30:23.813Z,51.99
2023-01-17T13:32:25.125Z,52.22
2023-01-17T13:34:27.195Z,51.87
2023-01-17T13:36:29.957Z,52.00
2023-01-17T13:38:31.293Z,51.76
2023-01-17T13:40:33.031Z,52.06
2023-01-17T13:42:34.366Z,51.82
2023-01-17T13:44:36.477Z,51.95
2023-01-17T13:46:37.798Z,51.97
2023-01-17T13:48:40.882Z,52.01
2023-01-17T13:50:42.295Z,52.39
2023-01-17T13:52:43.599Z,52.45
2023-01-17T13:54:45.002Z,52.60
2023-01-17T13:56:46.329Z,52.47
2023-01-17T13:58:51.697Z,52.45
2023-01-17T14:00:54.817Z,52.51
2023-01-17T14:02:56.389Z,52.42
2023-01-17T14:04:57.701Z,52.18
2023-01-17T14:07:01.157Z,51.95
2023-01-17T14:09:02.497Z,51.88
2023-01-17T14:11:03.859Z,51.48
2023-01-17T14:13:05.207Z,51.58
2023-01-17T14:15:06.520Z,51.40
2023-01-17T14:17:07.863Z,51.07
2023-01-17T14:19:09.414Z,51.10
2023-01-17T14:21:10.818Z,50.90
2023-01-17T14:23:12.249Z,51.13
2023-01-17T14:25:17.580Z,51.09
2023-01-17T14:27:18.903Z,51.08
2023-01-17T14:29:20.486Z,50.58
2023-01-17T14:31:22.662Z,51.06
2023-01-17T14:33:24.000Z,50.90
2023-01-17T14:35:31.411Z,50.71
2023-01-17T14:37:32.751Z,50.97
2023-01-17T14:39:34.101Z,50.61
2023-01-17T14:41:35.423Z,50.86
2023-01-17T14:43:36.751Z,50.49
2023-01-17T14:45:38.056Z,50.61
2023-01-17T14:47:39.432Z,51.00
2023-01-17T14:49:40.799Z,51.03
2023-01-17T14:51:42.138Z,51.45
2023-01-17T14:53:43.438Z,51.22
2023-01-17T14:55:44.855Z,51.08
2023-01-17T14:57:46.186Z,51.36
2023-01-17T14:59:47.510Z,51.35
2023-01-17T15:02:05.785Z,51.35
2023-01-17T15:04:08.293Z,51.85
2023-01-17T15:06:09.634Z,51.56
2023-01-17T15:08:10.947Z,51.63
2023-01-17T15:10:12.868Z,51.80
2023-01-17T15:12:14.673Z,51.73
2023-01-17T15:14:16.041Z,51.88
2023-01-17T15:16:17.375Z,51.92
2023-01-17T15:18:19.176Z,51.96
2023-01-17T15:20:20.574Z,52.04
2023-01-17T15:22:22.061Z,51.87
2023-01-17T15:24:23.370Z,51.77
2023-01-17T15:26:24.715Z,52.49
2023-01-17T15:28:26.188Z,51.81
2023-01-17T15:30:27.636Z,51.90
2023-01-17T15:32:31.417Z,51.82
2023-01-17T15:34:32.744Z,51.71
2023-01-17T15:36:34.404Z,51.74
2023-01-17T15:38:39.042Z,51.58
2023-01-17T15:40:42.957Z,51.33
2023-01-17T15:42:44.282Z,51.11
2023-01-17T15:44:48.901Z,51.08
2023-01-17T15:46:50.754Z,50.98
2023-01-17T15:48:52.096Z,51.11
2023-01-17T15:50:53.437Z,50.90
2023-01-17T15:52:54.742Z,50.80
2023-01-17T15:54:56.075Z,50.97
2023-01-17T15:56:57.410Z,50.74
2023-01-17T15:58:58.700Z,50.58
2023-01-17T16:01:00.185Z,50.83
2023-01-17T16:03:02.291Z,50.86
2023-01-17T16:05:03.673Z,50.70
2023-01-17T16:07:05.156Z,51.03
2023-01-17T16:09:06.450Z,50.85
2023-01-17T16:11:07.855Z,50.95
2023-01-17T16:13:09.193Z,50.99
2023-01-17T16:15:13.268Z,51.13
2023-01-17T16:17:14.871Z,51.11
2023-01-17T16:19:16.208Z,51.21
2023-01-17T16:21:18.677Z,51.16
2023-01-17T16:23:19.989Z,51.31
2023-01-17T16:25:21.307Z,51.39
2023-01-17T16:27:22.604Z,51.35
2023-01-17T16:29:23.910Z,51.33
2023-01-17T16:31:25.399Z,51.47
2023-01-17T16:33:26.754Z,51.68
2023-01-17T16:35:28.193Z,51.78
2023-01-17T16:37:29.492Z,51.69
2023-01-17T16:39:30.858Z,51.98
2023-01-17T16:41:32.198Z,51.83
2023-01-17T16:43:33.486Z,51.90
2023-01-17T16:45:35.046Z,51.76
2023-01-17T16:47:36.383Z,52.14
2023-01-17T16:49:43.871Z,51.75
2023-01-17T16:51:45.378Z,51.72
2023-01-17T16:53:46.790Z,51.67
2023-01-17T16:55:48.143Z,51.69
2023-01-17T16:57:49.669Z,51.47
2023-01-17T16:59:52.322Z,51.10
2023-01-17T17:01:53.968Z,51.05
2023-01-17T17:03:55.381Z,50.88
2023-01-17T17:05:56.749Z,50.68
2023-01-17T17:07:58.053Z,50.77
2023-01-17T17:09:59.622Z,50.68
2023-01-17T17:12:00.976Z,50.83
2023-01-17T17:14:02.320Z,50.58
2023-01-17T17:16:03.741Z,50.44
2023-01-17T17:18:05.651Z,50.08
2023-01-17T17:20:06.987Z,50.65
2023-01-17T17:22:08.375Z,50.31
2023-01-17T17:24:09.705Z,50.42
2023-01-17T17:26:11.007Z,50.59
2023-01-17T17:28:12.323Z,50.83
2023-01-17T17:30:13.693Z,50.85
2023-01-17T17:32:14.986Z,50.80
2023-01-17T17:34:16.313Z,50.94
2023-01-17T17:36:17.650Z,50.99
2023-01-17T17:38:18.983Z,50.92
2023-01-17T17:40:20.282Z,50.80
2023-01-17T17:42:21.610Z,51.10
2023-01-17T17:44:22.941Z,50.96
2023-01-17T17:46:24.518Z,50.84
2023-01-17T17:48:25.953Z,50.86
2023-01-17T17:50:27.259Z,51.09
2023-01-17T17:52:28.665Z,51.07
2023-01-17T17:54:33.048Z,51.29
2023-01-17T17:56:34.369Z,51.34
2023-01-17T17:58:36.294Z,51.24
2023-01-17T18:00:37.636Z,51.33
2023-01-17T18:02:39.014Z,51.20
2023-01-17T18:04:40.402Z,51.10
2023-01-17T18:06:41.744Z,51.15
2023-01-17T18:08:43.047Z,51.48
2023-01-17T18:10:44.703Z,51.45
2023-01-17T18:12:49.023Z,50.98
2023-01-17T18:14:50.322Z,50.76
2023-01-17T18:16:51.741Z,50.82
2023-01-17T18:18:53.072Z,50.38
2023-01-17T18:20:54.357Z,50.09
2023-01-17T18:22:55.818Z,50.18
2023-01-17T18:24:57.203Z,49.83
2023-01-17T18:26:58.847Z,49.45
2023-01-17T18:29:03.150Z,49.57
2023-01-17T18:31:10.339Z,49.32
2023-01-17T18:33:13.125Z,49.06
2023-01-17T18:35:14.423Z,49.30
2023-01-17T18:37:18.734Z,49.20
2023-01-17T18:39:20.255Z,49.20
2023-01-17T18:41:21.566Z,48.60
2023-01-17T18:43:22.861Z,48.06
2023-01-17T18:45:27.171Z,47.22
2023-01-17T18:47:28.470Z,48.53
2023-01-17T18:49:29.752Z,47.65
2023-01-17T18:51:32.237Z,49.17
2023-01-17T18:53:33.602Z,49.05
2023-01-17T18:55:34.893Z,48.53
2023-01-17T18:57:36.250Z,48.56
2023-01-17T18:59:37.548Z,50.00
2023-01-17T19:01:38.907Z,51.52
2023-01-17T19:03:40.288Z,49.54
2023-01-17T19:05:41.637Z,50.90
2023-01-17T19:07:45.829Z,51.31
2023-01-17T19:09:47.166Z,51.14
2023-01-17T19:11:51.567Z,51.47
2023-01-17T19:13:56.127Z,51.91
2023-01-17T19:16:00.131Z,51.86
2023-01-17T19:18:07.604Z,51.95
2023-01-17T19:20:09.061Z,52.15
2023-01-17T19:22:16.038Z,51.79
2023-01-17T19:24:20.147Z,52.16
2023-01-17T19:26:23.180Z,51.68
2023-01-17T19:28:32.225Z,51.69
2023-01-17T19:30:34.641Z,51.69
2023-01-17T19:32:35.952Z,51.64
2023-01-17T19:34:37.279Z,52.14
2023-01-17T19:36:38.624Z,51.64
2023-01-17T19:38:40.019Z,51.37
2023-01-17T19:40:41.367Z,52.15
2023-01-17T19:42:45.595Z,52.00
2023-01-17T19:44:46.921Z,50.71
2023-01-17T19:46:51.086Z,50.88
2023-01-17T19:48:55.465Z,51.12
2023-01-17T19:50:56.802Z,51.44
2023-01-17T19:52:58.119Z,52.15
2023-01-17T19:54:59.414Z,51.23
2023-01-17T19:57:00.960Z,51.16
2023-01-17T19:59:02.518Z,50.59
2023-01-17T20:01:03.973Z,50.62
2023-01-17T20:03:05.691Z,50.26
2023-01-17T20:05:08.053Z,50.36
2023-01-17T20:07:09.398Z,50.45
2023-01-17T20:09:12.806Z,50.50
2023-01-17T20:11:14.813Z,50.33
2023-01-17T20:13:16.206Z,50.09
2023-01-17T20:15:17.512Z,50.31
2023-01-17T20:17:18.805Z,50.81
2023-01-17T20:19:20.140Z,50.96
2023-01-17T20:21:21.499Z,51.23
2023-01-17T20:23:22.801Z,51.08
2023-01-17T20:25:24.136Z,51.02
2023-01-17T20:27:26.651Z,50.75
2023-01-17T20:29:27.966Z,51.21
2023-01-17T20:31:32.396Z,51.10
2023-01-17T20:33:35.114Z,51.02
2023-01-17T20:35:36.875Z,51.69
2023-01-17T20:37:38.273Z,52.19
2023-01-17T20:39:39.799Z,51.65
2023-01-17T20:41:41.134Z,52.15
2023-01-17T20:43:42.472Z,52.13
2023-01-17T20:45:43.846Z,52.68
2023-01-17T20:47:45.219Z,52.45
2023-01-17T20:49:46.641Z,52.30
2023-01-17T20:51:50.856Z,52.83
2023-01-17T20:53:52.186Z,53.17
2023-01-17T20:55:53.479Z,52.45
2023-01-17T20:57:55.015Z,52.31
2023-01-17T20:59:56.578Z,52.94
2023-01-17T21:02:00.794Z,52.39
2023-01-17T21:04:03.155Z,51.82
2023-01-17T21:06:04.501Z,51.29
2023-01-17T21:08:05.825Z,50.86
2023-01-17T21:10:07.134Z,51.06
2023-01-17T21:12:09.049Z,51.24
2023-01-17T21:14:10.350Z,51.62
2023-01-17T21:16:12.707Z,51.13
2023-01-17T21:18:14.372Z,50.95
2023-01-17T21:20:16.704Z,50.83
2023-01-17T21:22:18.206Z,50.79
2023-01-17T21:24:20.124Z,50.55
2023-01-17T21:26:21.438Z,52.15
2023-01-17T21:28:22.826Z,50.80
2023-01-17T21:30:24.228Z,50.23
2023-01-17T21:32:25.554Z,50.35
2023-01-17T21:34:27.651Z,50.25
2023-01-17T21:36:28.946Z,51.07
2023-01-17T21:38:31.360Z,50.93
2023-01-17T21:40:32.658Z,49.26
2023-01-17T21:42:36.960Z,50.25
2023-01-17T21:44:38.314Z,49.94
2023-01-17T21:46:39.670Z,50.54
2023-01-17T21:48:40.970Z,50.21
2023-01-17T21:50:42.299Z,50.30
2023-01-17T21:52:45.260Z,50.76
2023-01-17T21:55:06.632Z,51.11
2023-01-17T21:57:26.436Z,50.92
2023-01-17T21:59:27.748Z,50.62
2023-01-17T22:01:29.171Z,51.49
2023-01-17T22:03:30.591Z,51.49
2023-01-17T22:05:31.968Z,51.71
2023-01-17T22:07:33.551Z,51.27
2023-01-17T22:09:34.907Z,38.02
2023-01-17T22:11:36.200Z,36.07
2023-01-17T22:13:40.570Z,42.46
2023-01-17T22:15:41.921Z,44.37
2023-01-17T22:17:46.922Z,44.00
2023-01-17T22:19:48.231Z,44.45
2023-01-17T22:21:49.525Z,45.23
2023-01-17T22:23:51.274Z,45.52
2023-01-17T22:25:52.570Z,46.04
2023-01-17T22:27:54.223Z,46.48
2023-01-17T22:29:55.591Z,46.75
2023-01-17T22:31:56.929Z,47.03
2023-01-17T22:33:58.285Z,47.10
2023-01-17T22:35:59.625Z,47.57
2023-01-17T22:38:02.183Z,47.78
2023-01-17T22:40:04.990Z,47.50
2023-01-17T22:42:06.408Z,48.25
2023-01-17T22:44:08.507Z,48.19
2023-01-17T22:46:09.936Z,47.99
2023-01-17T22:48:11.325Z,48.56
2023-01-17T22:50:13.243Z,48.59
2023-01-17T22:52:14.838Z,49.01
2023-01-17T22:54:16.143Z,48.94
2023-01-17T22:56:17.722Z,48.98
2023-01-17T22:58:19.034Z,49.71
2023-01-17T23:00:20.374Z,49.95
2023-01-17T23:02:21.741Z,50.09
2023-01-17T23:04:23.094Z,50.08
2023-01-17T23:06:25.531Z,51.48
2023-01-17T23:08:26.838Z,51.63
2023-01-17T23:10:46.701Z,50.62
2023-01-17T23:12:48.094Z,50.60
2023-01-17T23:15:08.484Z,51.16
2023-01-17T23:17:28.522Z,51.24
2023-01-17T23:19:29.867Z,51.43
2023-01-17T23:21:51.187Z,51.34
2023-01-17T23:23:52.538Z,51.74
2023-01-17T23:25:53.847Z,51.99
2023-01-17T23:28:27.614Z,52.40
2023-01-17T23:30:29.147Z,52.65
2023-01-17T23:32:30.702Z,52.88
2023-01-17T23:34:32.004Z,52.89
2023-01-17T23:36:33.342Z,53.27
2023-01-17T23:38:37.620Z,53.02
2023-01-17T23:40:38.989Z,53.19
2023-01-17T23:42:59.212Z,53.40
2023-01-17T23:45:00.779Z,53.20
2023-01-17T23:47:02.284Z,53.44
2023-01-17T23:49:03.638Z,53.85
2023-01-17T23:51:10.829Z,53.79
2023-01-17T23:53:12.166Z,53.95
2023-01-17T23:55:13.674Z,53.90
2023-01-17T23:57:15.010Z,54.00
2023-01-17T23:59:16.332Z,54.17
